Flight Track Log - Related Links

Times and Time Zones

All times are in EST time to prevent confusion due to time zone crossing. See the EVA190 flight status page for this flight to view local times or setup timezone preferences in your user account.

Time Position Orientation Groundspeed Altitude Reporting Facility
EST Latitude Longitude Course Direction KTS MPH feet Rate Location/Type
Mon 03:30:00 AM 25.4235 122.0535 52° Northeast  Level Estimated
Mon 03:31:00 AM 25.5117 122.1795 52° Northeast  Level Estimated
Mon 03:32:00 AM 25.5998 122.3056 52° Northeast  Level Estimated
Mon 03:33:00 AM 25.6879 122.4319 52° Northeast  Level Estimated
Mon 03:34:00 AM 25.7758 122.5584 52° Northeast  Level Estimated
Mon 03:35:00 AM 25.8636 122.6850 52° Northeast  Level Estimated
Mon 03:36:00 AM 25.9513 122.8119 52° Northeast  Level Estimated
Mon 03:37:00 AM 26.0388 122.9389 52° Northeast  Level Estimated
Mon 03:38:00 AM 26.1263 123.0662 53° Northeast  Level Estimated
Mon 03:39:00 AM 26.2137 123.1936 53° Northeast  Level Estimated
Mon 03:40:00 AM 26.3009 123.3212 53° Northeast  Level Estimated
Mon 03:41:00 AM 26.3880 123.4490 53° Northeast  Level Estimated
Mon 03:42:00 AM 26.4751 123.5770 53° Northeast  Level Estimated
Mon 03:43:00 AM 26.5620 123.7053 53° Northeast  Level Estimated
Mon 03:44:00 AM 26.6488 123.8336 53° Northeast  Level Estimated
Mon 03:45:00 AM 26.7354 123.9622 53° Northeast  Level Estimated
Mon 03:46:00 AM 26.8220 124.0910 53° Northeast  Level Estimated
Mon 03:47:00 AM 26.9084 124.2200 53° Northeast  Level Estimated
Mon 03:48:00 AM 26.9948 124.3492 53° Northeast  Level Estimated
Mon 03:49:00 AM 27.0810 124.4786 53° Northeast  Level Estimated
Mon 03:50:00 AM 27.1671 124.6081 53° Northeast  Level Estimated
Mon 03:51:00 AM 27.2530 124.7379 53° Northeast  Level Estimated
Mon 03:52:00 AM 27.3389 124.8679 53° Northeast  Level Estimated
Mon 03:53:00 AM 27.4246 124.9981 53° Northeast  Level Estimated
Mon 03:54:00 AM 27.5102 125.1284 53° Northeast  Level Estimated
Mon 03:55:00 AM 27.5957 125.2590 54° Northeast  Level Estimated
Mon 03:56:00 AM 27.6811 125.3898 54° Northeast  Level Estimated
Mon 03:57:00 AM 27.7663 125.5208 54° Northeast  Level Estimated
Mon 03:58:00 AM 27.8514 125.6520 54° Northeast  Level Estimated
Mon 03:59:00 AM 27.9364 125.7834 54° Northeast  Level Estimated
Mon 04:00:00 AM 28.0213 125.9150 54° Northeast  Level Estimated
Mon 04:01:00 AM 28.1060 126.0468 54° Northeast  Level Estimated
Mon 04:02:00 AM 28.1907 126.1789 54° Northeast  Level Estimated
Mon 04:03:00 AM 28.2752 126.3111 54° Northeast  Level Estimated
Mon 04:04:00 AM 28.3595 126.4435 54° Northeast  Level Estimated
Mon 04:05:00 AM 28.4437 126.5762 54° Northeast  Level Estimated
Mon 04:06:00 AM 28.5278 126.7091 54° Northeast  Level Estimated
Mon 04:07:00 AM 28.6118 126.8421 54° Northeast  Level Estimated
Mon 04:08:00 AM 28.6957 126.9754 54° Northeast  Level Estimated
Mon 04:09:00 AM 28.7794 127.1089 54° Northeast  Level Estimated
Mon 04:10:00 AM 28.8630 127.2427 54° Northeast  Level Estimated
Mon 04:11:00 AM 28.9464 127.3766 55° Northeast  Level Estimated
Mon 04:12:00 AM 29.0298 127.5107 55° Northeast  Level Estimated
Mon 04:13:00 AM 29.1129 127.6451 55° Northeast  Level Estimated
Mon 04:14:00 AM 29.1960 127.7797 55° Northeast  Level Estimated
Mon 04:15:00 AM 29.2789 127.9145 55° Northeast  Level Estimated
Mon 04:16:00 AM 29.3617 128.0495 55° Northeast  Level Estimated
Mon 04:17:00 AM 29.4443 128.1847 55° Northeast  Level Estimated
Mon 04:18:00 AM 29.5268 128.3202 55° Northeast  Level Estimated
Mon 04:19:00 AM 29.6092 128.4559 55° Northeast  Level Estimated
Mon 04:20:00 AM 29.6914 128.5918 55° Northeast  Level Estimated
Mon 04:21:00 AM 29.7735 128.7279 55° Northeast  Level Estimated
Mon 04:22:00 AM 29.8555 128.8642 55° Northeast  Level Estimated
Mon 04:23:00 AM 29.9373 129.0008 55° Northeast  Level Estimated
Mon 04:24:00 AM 30.0190 129.1376 55° Northeast  Level Estimated
Mon 04:25:00 AM 30.1005 129.2746 55° Northeast  Level Estimated
Mon 04:26:00 AM 30.1819 129.4119 56° Northeast  Level Estimated
Mon 04:27:00 AM 30.2631 129.5494 56° Northeast  Level Estimated
Mon 04:28:00 AM 30.3442 129.6871 56° Northeast  Level Estimated
Mon 04:29:00 AM 30.4252 129.8250 56° Northeast  Level Estimated
Mon 04:30:00 AM 30.5060 129.9632 56° Northeast  Level Estimated
Mon 04:31:00 AM 30.5867 130.1015 56° Northeast  Level Estimated
Mon 04:32:00 AM 30.6672 130.2402 56° Northeast  Level Estimated
Mon 04:33:00 AM 30.7475 130.3790 56° Northeast  Level Estimated
Mon 04:34:00 AM 30.8278 130.5181 56° Northeast  Level Estimated
Mon 04:35:00 AM 30.9078 130.6574 56° Northeast  Level Estimated
Mon 04:36:00 AM 30.9878 130.7970 56° Northeast  Level Estimated
Mon 04:37:00 AM 31.0675 130.9367 56° Northeast  Level Estimated
Mon 04:38:00 AM 31.1472 131.0768 56° Northeast  Level Estimated
Mon 04:39:00 AM 31.2266 131.2170 56° Northeast  Level Estimated
Mon 04:40:00 AM 31.3059 131.3575 57° Northeast  Level Estimated
Mon 04:41:00 AM 31.3851 131.4982 57° Northeast  Level Estimated
Mon 04:42:00 AM 31.4641 131.6392 57° Northeast  Level Estimated
Mon 04:43:00 AM 31.5430 131.7804 57° Northeast  Level Estimated
Mon 04:44:00 AM 31.6217 131.9218 57° Northeast  Level Estimated
Mon 04:45:00 AM 31.7002 132.0635 57° Northeast  Level Estimated
Mon 04:46:00 AM 31.7786 132.2054 57° Northeast  Level Estimated
Mon 04:47:00 AM 31.8568 132.3476 57° Northeast  Level Estimated
Mon 04:48:00 AM 31.9349 132.4900 57° Northeast  Level Estimated
Mon 04:49:00 AM 32.0128 132.6326 57° Northeast  Level Estimated
Mon 04:50:00 AM 32.0906 132.7755 57° Northeast  Level Estimated
Mon 04:51:00 AM 32.1682 132.9186 57° Northeast  Level Estimated
Mon 04:52:00 AM 32.2456 133.0620 57° Northeast  Level Estimated
Mon 04:53:00 AM 32.3229 133.2056 57° Northeast  Level Estimated
Mon 04:54:00 AM 32.4000 133.3495 58° Northeast  Level Estimated
Mon 04:55:00 AM 32.4769 133.4935 58° Northeast  Level Estimated
Mon 04:56:00 AM 32.5537 133.6379 58° Northeast  Level Estimated
Mon 04:57:00 AM 32.6303 133.7825 58° Northeast  Level Estimated
Mon 04:58:00 AM 32.7068 133.9273 58° Northeast  Level Estimated
Mon 04:59:00 AM 32.7830 134.0724 58° Northeast  Level Estimated
Mon 05:00:00 AM 32.8591 134.2178 58° Northeast  Level Estimated
Mon 05:01:00 AM 32.9351 134.3634 58° Northeast  Level Estimated
Mon 05:02:00 AM 33.0109 134.5092 58° Northeast  Level Estimated
Mon 05:03:00 AM 33.0865 134.6553 58° Northeast  Level Estimated
Mon 05:04:00 AM 33.1619 134.8016 58° Northeast  Level Estimated
Mon 05:05:00 AM 33.2372 134.9482 58° Northeast  Level Estimated
Mon 05:06:00 AM 33.3123 135.0951 59° Northeast  Level Estimated
Mon 05:07:00 AM 33.3872 135.2422 59° Northeast  Level Estimated
Mon 05:08:00 AM 33.4619 135.3895 59° Northeast  Level Estimated
Mon 05:09:00 AM 33.5365 135.5371 59° Northeast  Level Estimated
Mon 05:10:00 AM 33.6109 135.6850 59° Northeast  Level Estimated
Mon 05:11:00 AM 33.6851 135.8331 59° Northeast  Level Estimated
Mon 05:12:00 AM 33.7592 135.9815 59° Northeast  Level Estimated
Mon 05:13:00 AM 33.8330 136.1301 59° Northeast  Level Estimated
Mon 05:14:00 AM 33.9067 136.2790 59° Northeast  Level Estimated
Mon 05:15:00 AM 33.9802 136.4281 59° Northeast  Level Estimated
Mon 05:16:00 AM 34.0536 136.5775 59° Northeast  Level Estimated
Mon 05:17:00 AM 34.1267 136.7272 59° Northeast  Level Estimated
Mon 05:18:00 AM 34.1997 136.8771 59° Northeast  Level Estimated
Mon 05:19:00 AM 34.2724 137.0273 60° Northeast  Level Estimated
Mon 05:20:00 AM 34.3451 137.1777 60° Northeast  Level Estimated
Mon 05:21:00 AM 34.4175 137.3284 60° Northeast  Level Estimated
Mon 05:22:00 AM 34.4897 137.4794 60° Northeast  Level Estimated
Mon 05:23:00 AM 34.5617 137.6306 60° Northeast  Level Estimated
Mon 05:24:00 AM 34.6336 137.7821 60° Northeast  Level Estimated
Mon 05:25:00 AM 34.7053 137.9338 60° Northeast  Level Estimated
Mon 05:26:00 AM 34.7767 138.0858 60° Northeast  Level Estimated
Mon 05:27:00 AM 34.8480 138.2381 60° Northeast  Level Estimated
Mon 05:28:00 AM 34.9191 138.3906 60° Northeast  Level Estimated
Mon 05:29:00 AM 34.9900 138.5434 60° Northeast  Level Estimated
Mon 05:30:00 AM 35.0608 138.6965 61° Northeast  Level Estimated
Mon 05:31:00 AM 35.1313 138.8498 61° Northeast  Level Estimated
Mon 05:32:00 AM 35.2016 139.0034 61° Northeast  Level Estimated
Mon 05:33:00 AM 35.2718 139.1573 61° Northeast  Level Estimated
Mon 05:34:00 AM 35.3417 139.3114 61° Northeast  Level Estimated
Mon 05:35:00 AM 35.4114 139.4658 61° Northeast  Level Estimated
Mon 05:36:00 AM 35.4810 139.6205 61° Northeast  Level Estimated
Mon 05:37:00 AM 35.5503 139.7754 61° Northeast  Level Estimated
Mon 05:38:00 AM 35.5523 139.7797 61° Northeast  Level Estimated
Mon 05:39:00 AM 35.5523 139.7797 122° Southeast  Level Estimated
Mon 05:40:00 AM 35.5523 139.7797 122° Southeast  Level Estimated
Mon 05:41:00 AM 35.5523 139.7797 122° Southeast  Level Estimated
Mon 05:42:00 AM 35.5523 139.7797 122° Southeast  Level Estimated
Mon 05:43:00 AM 35.5523 139.7797 122° Southeast  Level Estimated
Mon 05:44:00 AM 35.5523 139.7797 122° Southeast  Level Estimated
Mon 05:45:00 AM 35.5523 139.7797 122° Southeast  Level Estimated
Mon 05:46:00 AM 35.5523 139.7797 122° Southeast  Level Estimated
Mon 05:47:00 AM 35.5523 139.7797 122° Southeast  Level Estimated
Mon 05:48:00 AM 35.5523 139.7797 122° Southeast  Level Estimated
Mon 05:49:00 AM 35.5523 139.7797 122° Southeast  Level Estimated
Mon 05:50:00 AM 35.5523 139.7797 122° Southeast  Level Estimated
Mon 05:51:00 AM 35.5523 139.7797 122° Southeast  Level Estimated
Mon 05:52:00 AM 35.5523 139.7797 122° Southeast  Level Estimated
Mon 05:53:00 AM 35.5523 139.7797 122° Southeast  Level Estimated

Login

Don't have an account? Register now (free) for customized features, flight alerts, and more!